Time;durP1;ratioP1;P1;durP2;ratioP2;P2;SDS_P1;SDS_P2;PMS_P1;PMS_P2;Temp;Humidity;BMP_temperature;BMP_pressure;BME280_temperature;BME280_humidity;BME280_pressure;Samples;Min_cycle;Max_cycle;Signal;HPM_P1;HPM_P2
2023/08/01 00:02:26;;;;;;;1.00;0.77;;;22.60;59.60;;;;;;6294388;28;20035;-69
2023/08/01 00:05:26;;;;;;;1.52;0.80;;;22.60;59.60;;;;;;6294414;28;20024;-68
2023/08/01 00:08:27;;;;;;;0.98;0.80;;;22.60;59.60;;;;;;6294203;28;20378;-69
2023/08/01 00:11:28;;;;;;;1.00;0.90;;;22.60;59.60;;;;;;6294710;28;20017;-69
2023/08/01 00:14:28;;;;;;;0.55;0.55;;;22.60;59.70;;;;;;6292774;28;20025;-68
2023/08/01 00:17:29;;;;;;;1.77;0.85;;;22.60;59.70;;;;;;6294371;28;20034;-69
2023/08/01 00:20:30;;;;;;;1.20;0.90;;;22.60;59.70;;;;;;6293114;28;20035;-69
2023/08/01 00:23:31;;;;;;;1.33;0.80;;;22.60;59.70;;;;;;6293718;28;20029;-67
2023/08/01 00:26:32;;;;;;;1.23;0.90;;;22.60;60.50;;;;;;6292972;28;20029;-69
2023/08/01 00:29:33;;;;;;;0.93;0.80;;;22.60;59.70;;;;;;6292473;28;20085;-69
2023/08/01 00:32:34;;;;;;;0.70;0.70;;;22.60;59.80;;;;;;6293678;28;20485;-69
2023/08/01 00:35:35;;;;;;;1.25;0.93;;;22.60;59.70;;;;;;6292453;28;20024;-68
2023/08/01 00:38:36;;;;;;;1.15;0.80;;;22.60;59.70;;;;;;6292598;28;20031;-69
2023/08/01 00:41:37;;;;;;;1.30;1.00;;;22.60;59.80;;;;;;6292631;28;20025;-69
2023/08/01 00:44:38;;;;;;;0.90;0.77;;;22.50;59.60;;;;;;6293457;28;20082;-69
2023/08/01 00:47:39;;;;;;;0.77;0.70;;;22.60;59.80;;;;;;6292150;28;20119;-69
2023/08/01 00:50:40;;;;;;;1.33;0.80;;;22.60;59.80;;;;;;6292033;28;20595;-69
2023/08/01 00:53:41;;;;;;;0.57;0.50;;;22.60;59.80;;;;;;6291944;28;20025;-69
2023/08/01 00:56:42;;;;;;;1.02;0.93;;;22.60;59.70;;;;;;6292169;28;20025;-68
2023/08/01 00:59:43;;;;;;;1.30;0.50;;;22.60;59.80;;;;;;6268862;28;20573;-68
2023/08/01 01:02:44;;;;;;;0.77;0.70;;;22.60;60.60;;;;;;6288420;28;20028;-69
2023/08/01 01:05:53;;;;;;;1.40;1.00;;;22.50;59.70;;;;;;6291607;28;20024;-69
2023/08/01 01:08:55;;;;;;;1.15;0.85;;;22.60;60.00;;;;;;6289454;28;20084;-69
2023/08/01 01:11:56;;;;;;;1.10;0.77;;;22.60;59.80;;;;;;6291433;28;20538;-68
2023/08/01 01:14:56;;;;;;;2.50;0.60;;;22.60;59.90;;;;;;6291714;28;20025;-69
2023/08/01 01:17:57;;;;;;;2.38;0.70;;;22.60;59.80;;;;;;6292911;28;20439;-69
2023/08/01 01:20:58;;;;;;;1.20;0.85;;;22.60;59.80;;;;;;6291879;28;20020;-69
2023/08/01 01:24:00;;;;;;;1.05;0.90;;;22.60;59.90;;;;;;6291124;28;20032;-69
2023/08/01 01:27:03;;;;;;;0.60;0.60;;;22.60;59.90;;;;;;6293100;28;20020;-69
2023/08/01 01:30:06;;;;;;;1.70;0.88;;;22.60;59.90;;;;;;6292744;28;20016;-69
2023/08/01 01:33:07;;;;;;;1.45;0.60;;;22.60;60.00;;;;;;6292540;28;20066;-69
2023/08/01 01:36:08;;;;;;;1.15;0.70;;;22.60;59.90;;;;;;6291814;28;20029;-69
2023/08/01 01:39:08;;;;;;;0.73;0.70;;;22.60;59.90;;;;;;6291579;28;20037;-69
2023/08/01 01:42:09;;;;;;;0.60;0.60;;;22.60;60.00;;;;;;6291613;28;20032;-68
2023/08/01 01:45:10;;;;;;;1.98;0.77;;;22.60;59.90;;;;;;6292268;28;20028;-69
2023/08/01 01:48:10;;;;;;;0.80;0.63;;;22.60;59.90;;;;;;6292054;28;20032;-69
2023/08/01 01:51:11;;;;;;;0.85;0.75;;;22.60;59.90;;;;;;6292758;28;20078;-68
2023/08/01 01:54:12;;;;;;;1.00;0.75;;;22.60;60.00;;;;;;6292231;28;20021;-69
2023/08/01 01:57:13;;;;;;;0.88;0.70;;;22.60;60.00;;;;;;6292467;28;20115;-69
2023/08/01 02:00:13;;;;;;;1.98;0.73;;;22.60;60.00;;;;;;6291336;28;20032;-69
2023/08/01 02:03:14;;;;;;;1.00;0.80;;;22.60;60.00;;;;;;6292392;28;20505;-69
2023/08/01 02:06:15;;;;;;;1.00;0.65;;;22.60;60.00;;;;;;6290742;28;20059;-69
2023/08/01 02:09:16;;;;;;;0.90;0.70;;;22.60;60.00;;;;;;6292144;28;20017;-68
2023/08/01 02:12:17;;;;;;;0.88;0.70;;;22.50;59.90;;;;;;6290793;28;20500;-69
2023/08/01 02:15:17;;;;;;;1.40;0.82;;;22.60;60.00;;;;;;6292281;28;20505;-69
2023/08/01 02:18:19;;;;;;;0.73;0.60;;;22.50;60.00;;;;;;6291759;28;20039;-69
2023/08/01 02:21:19;;;;;;;0.68;0.50;;;22.60;60.00;;;;;;6291124;28;20025;-69
2023/08/01 02:24:20;;;;;;;1.60;0.90;;;22.60;60.00;;;;;;6291849;28;20028;-69
2023/08/01 02:27:21;;;;;;;0.95;0.70;;;22.60;60.20;;;;;;6290649;28;20020;-69
2023/08/01 02:30:22;;;;;;;0.68;0.65;;;22.60;60.00;;;;;;6291955;28;20017;-69
2023/08/01 02:33:22;;;;;;;0.73;0.73;;;22.60;60.00;;;;;;6291635;28;20534;-69
2023/08/01 02:36:23;;;;;;;0.75;0.73;;;22.50;60.00;;;;;;6293480;28;20029;-69
2023/08/01 02:39:24;;;;;;;0.80;0.70;;;22.60;60.20;;;;;;6294946;28;20024;-68
2023/08/01 02:42:25;;;;;;;0.60;0.60;;;22.60;60.10;;;;;;6295309;28;20591;-69
2023/08/01 02:45:26;;;;;;;0.95;0.60;;;22.60;60.10;;;;;;6295916;28;20492;-69
2023/08/01 02:48:26;;;;;;;0.88;0.70;;;22.50;60.00;;;;;;6294975;28;20031;-69
2023/08/01 02:51:27;;;;;;;1.15;0.80;;;22.60;60.10;;;;;;6295953;28;20029;-69
2023/08/01 02:54:28;;;;;;;0.80;0.65;;;22.60;60.20;;;;;;6296330;28;20500;-69
2023/08/01 02:57:29;;;;;;;0.75;0.52;;;22.60;60.20;;;;;;6296108;28;20056;-68
2023/08/01 03:00:31;;;;;;;0.70;0.68;;;22.60;60.10;;;;;;6296215;28;20062;-69
2023/08/01 03:03:32;;;;;;;0.50;0.50;;;22.60;60.10;;;;;;6296111;28;20533;-69
2023/08/01 03:06:33;;;;;;;0.55;0.55;;;22.60;60.20;;;;;;6294556;28;20028;-69
2023/08/01 03:09:33;;;;;;;0.80;0.70;;;22.60;60.20;;;;;;6295735;28;20021;-69
2023/08/01 03:12:34;;;;;;;0.65;0.60;;;22.60;60.20;;;;;;6296050;28;20052;-69
2023/08/01 03:15:35;;;;;;;0.68;0.52;;;22.60;60.20;;;;;;6295446;28;20083;-69
2023/08/01 03:18:36;;;;;;;0.50;0.50;;;22.60;60.30;;;;;;6294655;28;20419;-70
2023/08/01 03:21:37;;;;;;;1.08;0.73;;;22.60;60.20;;;;;;6294650;28;20024;-68
2023/08/01 03:24:37;;;;;;;0.50;0.50;;;22.50;60.10;;;;;;6295518;28;20032;-69
2023/08/01 03:27:38;;;;;;;1.23;0.52;;;22.60;60.30;;;;;;6294143;28;20028;-69
2023/08/01 03:30:39;;;;;;;0.52;0.50;;;22.60;60.20;;;;;;6294252;28;20027;-69
2023/08/01 03:33:40;;;;;;;0.68;0.57;;;22.60;60.20;;;;;;6294947;28;20494;-69
2023/08/01 03:36:41;;;;;;;0.88;0.65;;;22.60;60.20;;;;;;6294408;28;20049;-69
2023/08/01 03:39:42;;;;;;;0.77;0.50;;;22.60;60.30;;;;;;6293626;28;20029;-69
2023/08/01 03:42:43;;;;;;;0.68;0.68;;;22.50;60.20;;;;;;6295602;28;20048;-69
2023/08/01 03:45:44;;;;;;;0.73;0.63;;;22.60;60.20;;;;;;6294413;28;20448;-69
2023/08/01 03:48:45;;;;;;;0.47;0.43;;;22.60;60.30;;;;;;6293861;28;20048;-69
2023/08/01 03:51:45;;;;;;;0.85;0.70;;;22.50;60.10;;;;;;6294870;28;20473;-69
2023/08/01 03:54:46;;;;;;;0.60;0.60;;;22.60;60.30;;;;;;6294983;28;20473;-69
2023/08/01 03:57:47;;;;;;;0.60;0.60;;;22.60;60.30;;;;;;6294311;28;20401;-68
2023/08/01 04:00:48;;;;;;;0.90;0.70;;;22.50;60.10;;;;;;6293402;28;20405;-69
2023/08/01 04:03:48;;;;;;;0.68;0.63;;;22.60;60.30;;;;;;6292790;28;20458;-69
2023/08/01 04:06:49;;;;;;;0.60;0.60;;;22.60;60.30;;;;;;6294432;28;20048;-68
2023/08/01 04:09:50;;;;;;;0.60;0.60;;;22.60;60.30;;;;;;6292863;28;20154;-69
2023/08/01 04:12:51;;;;;;;0.70;0.60;;;22.60;60.30;;;;;;6293342;28;20077;-69
2023/08/01 04:15:51;;;;;;;0.70;0.60;;;22.60;60.30;;;;;;6294138;28;20020;-70
2023/08/01 04:18:52;;;;;;;0.75;0.65;;;22.60;60.30;;;;;;6294367;28;20035;-68
2023/08/01 04:21:53;;;;;;;0.65;0.60;;;22.60;60.30;;;;;;6293960;28;20406;-69
2023/08/01 04:24:54;;;;;;;0.55;0.50;;;22.50;60.30;;;;;;6294173;28;20029;-69
2023/08/01 04:27:54;;;;;;;0.70;0.65;;;22.60;60.30;;;;;;6293869;28;20500;-69
2023/08/01 04:30:55;;;;;;;0.60;0.60;;;22.60;60.40;;;;;;6294366;28;20029;-69
2023/08/01 04:33:56;;;;;;;2.08;0.70;;;22.50;60.30;;;;;;6293580;28;20537;-69
2023/08/01 04:36:56;;;;;;;0.45;0.45;;;22.50;60.30;;;;;;6292580;28;20052;-69
2023/08/01 04:39:57;;;;;;;0.50;0.50;;;22.60;60.40;;;;;;6293611;28;20051;-69
2023/08/01 04:42:59;;;;;;;1.50;0.70;;;22.60;60.40;;;;;;6293881;28;20465;-68
2023/08/01 04:45:59;;;;;;;0.45;0.45;;;22.60;60.40;;;;;;6291869;28;20108;-68
2023/08/01 04:49:00;;;;;;;0.50;0.50;;;22.60;60.40;;;;;;6293190;28;20722;-68
2023/08/01 04:52:01;;;;;;;0.73;0.50;;;22.60;60.30;;;;;;6293511;28;20385;-69
2023/08/01 04:55:03;;;;;;;0.70;0.57;;;22.60;60.40;;;;;;6292065;28;20129;-69
2023/08/01 04:58:03;;;;;;;0.50;0.50;;;22.60;60.40;;;;;;6292711;28;20017;-69
2023/08/01 05:01:04;;;;;;;0.50;0.50;;;22.60;60.40;;;;;;6282132;28;20044;-67
2023/08/01 05:04:05;;;;;;;0.57;0.50;;;22.50;60.30;;;;;;6289909;28;20584;-68
2023/08/01 05:07:06;;;;;;;0.70;0.60;;;22.50;60.30;;;;;;6290730;28;20473;-67
2023/08/01 05:10:07;;;;;;;0.52;0.43;;;22.50;60.30;;;;;;6292321;28;20024;-66
2023/08/01 05:13:08;;;;;;;0.70;0.57;;;22.50;60.40;;;;;;6291867;28;20036;-67
2023/08/01 05:16:08;;;;;;;0.60;0.60;;;22.50;60.40;;;;;;6291398;28;20063;-67
2023/08/01 05:19:09;;;;;;;0.63;0.50;;;22.60;60.60;;;;;;6292374;28;20440;-66
2023/08/01 05:22:10;;;;;;;0.40;0.40;;;22.60;60.50;;;;;;6292713;28;20024;-67
2023/08/01 05:25:11;;;;;;;0.60;0.60;;;22.50;60.40;;;;;;6290517;28;20034;-66
2023/08/01 05:28:12;;;;;;;0.60;0.60;;;22.50;60.40;;;;;;6290752;28;20127;-66
2023/08/01 05:31:12;;;;;;;1.20;0.70;;;22.50;60.40;;;;;;6292084;28;20479;-67
2023/08/01 05:34:13;;;;;;;0.52;0.52;;;22.60;60.50;;;;;;6291940;28;20048;-67
2023/08/01 05:37:14;;;;;;;0.95;0.60;;;22.60;60.50;;;;;;6292494;28;20055;-66
2023/08/01 05:40:15;;;;;;;0.50;0.50;;;22.50;60.40;;;;;;6291389;28;20043;-67
2023/08/01 05:43:16;;;;;;;0.47;0.47;;;22.60;60.50;;;;;;6290899;28;20111;-66
2023/08/01 05:46:17;;;;;;;0.60;0.60;;;22.60;60.50;;;;;;6290101;28;20056;-67
2023/08/01 05:49:17;;;;;;;0.77;0.73;;;22.60;60.60;;;;;;6291841;28;20029;-66
2023/08/01 05:52:18;;;;;;;0.60;0.52;;;22.50;60.40;;;;;;6291140;28;20047;-66
2023/08/01 05:55:19;;;;;;;0.60;0.60;;;22.50;60.50;;;;;;6291481;28;20448;-66
2023/08/01 05:58:20;;;;;;;0.73;0.63;;;22.50;60.50;;;;;;6270239;28;21649;-65
2023/08/01 06:01:22;;;;;;;0.85;0.68;;;22.50;60.60;;;;;;6284991;28;20052;-67
2023/08/01 06:04:22;;;;;;;0.90;0.68;;;22.50;60.60;;;;;;6291754;28;20029;-67
2023/08/01 06:07:23;;;;;;;1.00;0.65;;;22.50;60.70;;;;;;6292388;28;20047;-66
2023/08/01 06:10:24;;;;;;;1.15;0.90;;;22.50;60.70;;;;;;6296921;28;20025;-67
2023/08/01 06:13:25;;;;;;;1.25;0.85;;;22.50;60.80;;;;;;6298597;28;20020;-67
2023/08/01 06:16:25;;;;;;;0.52;0.52;;;22.50;60.70;;;;;;6297935;28;20055;-67
2023/08/01 06:19:26;;;;;;;0.90;0.70;;;22.50;60.70;;;;;;6288507;28;20028;-67
2023/08/01 06:22:27;;;;;;;1.05;0.90;;;22.50;60.70;;;;;;6288765;28;20051;-67
2023/08/01 06:25:27;;;;;;;0.93;0.80;;;22.50;60.80;;;;;;6297936;28;20389;-67
2023/08/01 06:28:28;;;;;;;0.80;0.70;;;22.50;60.70;;;;;;6297427;28;20393;-66
2023/08/01 06:31:29;;;;;;;0.93;0.70;;;22.50;60.70;;;;;;6298166;28;20025;-67
2023/08/01 06:34:30;;;;;;;0.90;0.57;;;22.50;60.70;;;;;;6298045;28;20044;-66
2023/08/01 06:37:31;;;;;;;1.00;0.75;;;22.50;60.70;;;;;;6298523;28;20028;-67
2023/08/01 06:40:31;;;;;;;0.85;0.70;;;22.50;60.70;;;;;;6298257;28;20028;-67
2023/08/01 06:43:32;;;;;;;1.00;0.80;;;22.60;60.90;;;;;;6298701;28;20020;-67
2023/08/01 06:46:33;;;;;;;1.00;0.70;;;22.60;60.80;;;;;;6298038;28;20029;-67
2023/08/01 06:49:33;;;;;;;1.00;0.80;;;22.50;60.80;;;;;;6297875;28;20025;-67
2023/08/01 06:52:34;;;;;;;0.93;0.77;;;22.50;60.80;;;;;;6298242;28;20027;-66
2023/08/01 06:55:35;;;;;;;0.98;0.80;;;22.50;60.70;;;;;;6286397;28;20368;-66
2023/08/01 06:58:36;;;;;;;1.05;0.73;;;22.50;60.80;;;;;;6298214;28;20115;-66
2023/08/01 07:01:40;;;;;;;1.42;0.80;;;22.50;60.80;;;;;;6297602;28;20745;-67
2023/08/01 07:04:41;;;;;;;1.57;0.90;;;22.50;60.80;;;;;;6297224;28;20032;-67
2023/08/01 07:07:42;;;;;;;0.93;0.80;;;22.50;60.80;;;;;;6297521;28;20050;-67
2023/08/01 07:10:42;;;;;;;1.23;0.80;;;22.50;60.80;;;;;;6297222;28;20028;-67
2023/08/01 07:13:43;;;;;;;1.63;0.82;;;22.50;60.80;;;;;;6297499;28;20031;-67
2023/08/01 07:16:44;;;;;;;1.17;0.90;;;22.60;60.90;;;;;;6296405;28;20378;-68
2023/08/01 07:19:44;;;;;;;2.92;1.05;;;22.50;60.80;;;;;;6297365;28;20355;-68
2023/08/01 07:22:45;;;;;;;1.75;0.75;;;22.50;60.80;;;;;;6296555;28;20482;-67
2023/08/01 07:25:46;;;;;;;1.00;0.90;;;22.50;60.80;;;;;;6296503;28;20055;-67
2023/08/01 07:28:47;;;;;;;0.82;0.70;;;22.60;60.90;;;;;;6297074;28;20052;-67
2023/08/01 07:31:47;;;;;;;1.20;1.10;;;22.50;60.80;;;;;;6295663;28;20671;-67
2023/08/01 07:34:48;;;;;;;0.80;0.80;;;22.50;60.80;;;;;;6296057;28;20106;-68
2023/08/01 07:37:49;;;;;;;0.63;0.63;;;22.50;60.80;;;;;;6295708;28;20029;-68
2023/08/01 07:40:50;;;;;;;1.20;0.90;;;22.50;60.90;;;;;;6296229;28;20043;-68
2023/08/01 07:43:51;;;;;;;2.83;0.95;;;22.50;60.90;;;;;;6295029;28;20054;-68
2023/08/01 07:46:52;;;;;;;1.65;0.90;;;22.50;60.90;;;;;;6296535;28;20016;-69
2023/08/01 07:49:53;;;;;;;1.67;1.10;;;22.50;61.00;;;;;;6295686;28;20020;-69
2023/08/01 07:52:53;;;;;;;1.40;1.00;;;22.50;61.00;;;;;;6294536;28;20050;-69
2023/08/01 07:55:54;;;;;;;2.83;1.20;;;22.50;60.90;;;;;;6290384;28;20032;-69
2023/08/01 07:58:55;;;;;;;1.42;0.80;;;22.50;61.00;;;;;;6272509;28;20040;-69
2023/08/01 08:01:55;;;;;;;1.67;1.10;;;22.50;61.00;;;;;;6296176;28;20108;-69
2023/08/01 08:04:56;;;;;;;2.08;1.10;;;22.50;61.00;;;;;;6295776;28;20051;-69
2023/08/01 08:07:58;;;;;;;1.02;0.90;;;22.60;61.80;;;;;;6286298;28;20028;-66
2023/08/01 08:11:01;;;;;;;1.08;0.90;;;22.50;61.20;;;;;;6294692;28;20025;-69
2023/08/01 08:14:01;;;;;;;1.17;1.00;;;22.60;60.80;;;;;;6295572;28;20016;-67
2023/08/01 08:17:02;;;;;;;1.92;0.95;;;22.60;60.50;;;;;;6293528;28;20050;-68
2023/08/01 08:20:03;;;;;;;1.23;0.90;;;22.70;60.40;;;;;;6295839;28;20027;-67
2023/08/01 08:23:04;;;;;;;1.58;1.10;;;22.60;60.60;;;;;;6295123;28;20416;-68
2023/08/01 08:26:07;;;;;;;2.03;1.10;;;22.60;60.60;;;;;;6295124;28;20077;-68
2023/08/01 08:29:07;;;;;;;1.08;0.80;;;22.60;61.40;;;;;;6295310;28;20044;-68
2023/08/01 08:32:08;;;;;;;1.85;1.17;;;22.60;61.50;;;;;;6295211;28;20020;-68
2023/08/01 08:35:09;;;;;;;1.58;1.10;;;22.50;61.50;;;;;;6295067;28;20053;-68
2023/08/01 08:38:09;;;;;;;1.15;0.90;;;22.50;61.40;;;;;;6295281;28;20032;-72
2023/08/01 08:41:14;;;;;;;1.38;1.10;;;22.50;61.50;;;;;;6294126;28;20493;-70
2023/08/01 08:44:24;;;;;;;1.67;1.13;;;22.50;61.40;;;;;;6294676;28;20035;-70
2023/08/01 08:47:27;;;;;;;2.30;1.20;;;22.50;61.40;;;;;;6293920;28;20021;-67
2023/08/01 08:50:30;;;;;;;1.40;1.00;;;22.50;61.50;;;;;;6294043;28;20021;-68
2023/08/01 08:53:32;;;;;;;1.10;0.90;;;22.50;61.50;;;;;;6294853;28;20078;-68
2023/08/01 08:56:35;;;;;;;1.70;1.30;;;22.50;61.60;;;;;;6286734;28;20064;-68
2023/08/01 08:59:36;;;;;;;1.50;0.98;;;22.50;61.60;;;;;;6295446;28;20031;-68
2023/08/01 09:02:37;;;;;;;2.03;1.20;;;22.50;61.60;;;;;;6288680;28;20028;-67
2023/08/01 09:05:54;;;;;;;1.52;1.20;;;22.50;61.70;;;;;;6293866;28;20869;-68
2023/08/01 09:09:01;;;;;;;1.55;0.82;;;22.40;63.20;;;;;;6294605;28;20481;-68
2023/08/01 09:12:02;;;;;;;3.60;1.40;;;22.40;62.20;;;;;;6294635;28;20021;-68
2023/08/01 09:15:03;;;;;;;1.88;1.23;;;22.40;63.20;;;;;;6294604;28;20036;-68
2023/08/01 09:18:07;;;;;;;2.10;1.02;;;22.40;64.00;;;;;;6291367;28;20020;-67
2023/08/01 09:21:07;;;;;;;7.57;1.30;;;22.40;64.30;;;;;;6293378;28;20028;-68
2023/08/01 09:24:13;;;;;;;6.05;1.25;;;22.40;63.90;;;;;;6293518;28;20054;-68
2023/08/01 09:27:14;;;;;;;4.00;1.35;;;22.40;64.80;;;;;;6294180;28;20492;-68
2023/08/01 09:30:16;;;;;;;2.75;1.23;;;22.30;63.30;;;;;;6293450;28;20028;-68
2023/08/01 09:33:18;;;;;;;3.28;1.15;;;22.40;62.90;;;;;;6294422;28;20166;-68
2023/08/01 09:36:23;;;;;;;5.03;1.10;;;22.40;63.30;;;;;;6292794;28;20025;-67
2023/08/01 09:39:24;;;;;;;1.75;0.90;;;22.40;63.40;;;;;;6294257;28;20025;-68
2023/08/01 09:42:25;;;;;;;2.85;0.90;;;22.40;63.20;;;;;;6294065;28;20449;-68
2023/08/01 09:45:25;;;;;;;2.13;0.95;;;22.40;62.90;;;;;;6294039;28;20028;-67
2023/08/01 09:48:28;;;;;;;3.55;1.30;;;22.40;62.90;;;;;;6280463;28;20025;-68
2023/08/01 09:51:29;;;;;;;0.90;0.82;;;22.30;62.80;;;;;;6293922;28;20046;-68
2023/08/01 09:54:30;;;;;;;2.05;1.00;;;22.30;63.20;;;;;;6292523;28;20028;-69
2023/08/01 09:57:31;;;;;;;3.42;0.90;;;22.30;63.50;;;;;;6275961;28;20037;-68
2023/08/01 10:00:32;;;;;;;4.30;0.82;;;22.30;64.00;;;;;;6294129;28;20025;-69
2023/08/01 10:03:34;;;;;;;1.80;0.93;;;22.30;64.00;;;;;;6293722;28;20025;-69
2023/08/01 10:06:38;;;;;;;4.45;0.95;;;22.30;63.80;;;;;;6291305;28;20025;-68
2023/08/01 10:09:40;;;;;;;5.33;1.20;;;22.30;64.30;;;;;;6290606;28;20107;-69
2023/08/01 10:12:45;;;;;;;12.82;2.10;;;22.30;64.10;;;;;;6291286;28;20476;-69
2023/08/01 10:15:46;;;;;;;;;;;22.30;64.60;;;;;;6293185;28;20028;-69
2023/08/01 10:18:47;;;;;;;32.78;3.75;;;22.30;64.30;;;;;;6292797;28;19912;-69
2023/08/01 10:21:48;;;;;;;20.58;2.55;;;22.30;64.50;;;;;;6293090;28;20021;-68
2023/08/01 10:24:49;;;;;;;7.78;2.08;;;22.20;63.80;;;;;;6290173;28;20055;-68
2023/08/01 10:28:01;;;;;;;8.68;1.60;;;22.30;64.20;;;;;;6292040;28;20024;-69
2023/08/01 10:31:11;;;;;;;11.73;1.60;;;22.30;64.30;;;;;;6286148;28;20021;-69
2023/08/01 10:34:13;;;;;;;5.97;1.20;;;22.30;64.30;;;;;;6277406;28;20044;-69
2023/08/01 10:37:14;;;;;;;5.47;1.05;;;22.30;64.30;;;;;;6291875;28;20027;-69
2023/08/01 10:40:15;;;;;;;3.35;1.33;;;22.20;64.10;;;;;;6290145;28;20485;-69
2023/08/01 10:43:21;;;;;;;5.80;1.23;;;22.20;64.20;;;;;;6290466;28;20024;-70
2023/08/01 10:46:21;;;;;;;4.78;1.45;;;22.20;64.10;;;;;;6292156;28;20024;-69
2023/08/01 10:49:36;;;;;;;5.07;1.25;;;22.20;64.20;;;;;;6291009;28;20481;-69
2023/08/01 10:52:38;;;;;;;7.55;1.08;;;22.20;63.70;;;;;;6292650;28;20023;-69
2023/08/01 10:55:44;;;;;;;1.92;1.00;;;22.20;63.40;;;;;;6289071;28;20037;-69
2023/08/01 10:58:46;;;;;;;2.33;1.05;;;22.20;63.60;;;;;;6287612;28;20032;-69
2023/08/01 11:01:59;;;;;;;2.85;1.00;;;22.20;63.60;;;;;;6295433;28;20035;-69
2023/08/01 11:05:05;;;;;;;2.38;0.80;;;22.20;64.00;;;;;;6295287;28;20025;-69
2023/08/01 11:08:06;;;;;;;2.92;0.90;;;22.20;64.30;;;;;;6295513;28;20063;-69
2023/08/01 11:11:11;;;;;;;2.13;0.88;;;22.20;64.30;;;;;;6296113;28;20052;-69
2023/08/01 11:14:13;;;;;;;1.67;0.75;;;22.10;64.20;;;;;;6296586;28;20028;-73
2023/08/01 11:17:14;;;;;;;1.65;0.60;;;22.20;64.30;;;;;;6296699;28;20016;-72
2023/08/01 11:20:16;;;;;;;1.85;0.90;;;22.10;64.70;;;;;;6296343;28;20031;-69
2023/08/01 11:23:16;;;;;;;6.90;1.33;;;22.10;65.00;;;;;;6296328;28;20024;-69
2023/08/01 11:26:17;;;;;;;1.73;1.00;;;22.10;66.00;;;;;;6295819;28;20501;-69
2023/08/01 11:29:19;;;;;;;2.55;1.23;;;22.10;64.60;;;;;;6296306;28;20493;-73
2023/08/01 11:32:22;;;;;;;2.45;1.10;;;22.10;64.30;;;;;;6295864;28;20028;-69
2023/08/01 11:35:23;;;;;;;1.20;0.77;;;22.10;64.80;;;;;;6294647;28;20053;-69
2023/08/01 11:38:29;;;;;;;1.90;1.00;;;22.10;64.80;;;;;;6293621;28;20020;-69
2023/08/01 11:41:30;;;;;;;3.15;1.40;;;22.10;65.20;;;;;;6282001;28;20497;-69
2023/08/01 11:44:31;;;;;;;5.25;1.30;;;22.10;66.30;;;;;;6279800;28;20043;-69
2023/08/01 11:47:32;;;;;;;3.58;1.45;;;22.10;66.40;;;;;;6270942;28;20021;-69
2023/08/01 11:50:33;;;;;;;3.38;1.25;;;22.10;66.20;;;;;;6292870;28;20104;-69
2023/08/01 11:53:38;;;;;;;4.53;1.35;;;22.20;66.70;;;;;;6295227;28;20048;-69
2023/08/01 11:56:41;;;;;;;5.70;1.40;;;22.20;66.20;;;;;;6283771;28;20025;-69
2023/08/01 11:59:52;;;;;;;7.00;1.80;;;22.10;66.50;;;;;;6286361;28;20035;-69
2023/08/01 12:03:13;;;;;;;4.75;1.67;;;22.10;66.10;;;;;;6295632;28;20024;-69
2023/08/01 12:06:15;;;;;;;4.88;1.48;;;22.20;66.20;;;;;;6290971;28;20024;-70
2023/08/01 12:09:16;;;;;;;5.00;1.85;;;22.10;65.70;;;;;;6294777;28;20024;-69
2023/08/01 12:12:17;;;;;;;5.93;2.60;;;22.10;65.40;;;;;;6294582;28;20035;-69
2023/08/01 12:15:17;;;;;;;6.40;3.00;;;22.10;65.80;;;;;;6293027;28;20205;-69
2023/08/01 12:18:26;;;;;;;13.18;3.80;;;22.20;65.80;;;;;;6291462;28;20024;-68
2023/08/01 12:21:28;;;;;;;9.52;4.00;;;22.20;65.60;;;;;;6282516;28;20150;-70
2023/08/01 12:24:29;;;;;;;10.27;2.72;;;22.20;65.50;;;;;;6294727;28;20024;-70
2023/08/01 12:27:30;;;;;;;13.25;3.45;;;22.30;65.10;;;;;;6293208;28;20028;-69
2023/08/01 12:30:31;;;;;;;16.10;4.63;;;22.30;64.80;;;;;;6292411;28;20619;-70
2023/08/01 12:33:32;;;;;;;13.40;4.95;;;22.30;64.50;;;;;;6294256;28;20730;-69
2023/08/01 12:36:33;;;;;;;19.98;5.50;;;22.40;65.10;;;;;;6293241;28;20546;-69
2023/08/01 12:39:34;;;;;;;17.50;6.00;;;22.50;64.40;;;;;;6292459;28;20115;-69
2023/08/01 12:42:35;;;;;;;20.20;6.75;;;22.60;64.20;;;;;;6293561;28;20020;-69
2023/08/01 12:45:35;;;;;;;31.50;8.80;;;22.60;64.30;;;;;;6293446;28;20359;-69
2023/08/01 12:48:36;;;;;;;27.63;7.82;;;22.60;64.50;;;;;;6293893;28;20031;-69
2023/08/01 12:51:37;;;;;;;20.70;8.32;;;22.60;64.40;;;;;;6294070;28;20556;-69
2023/08/01 12:54:38;;;;;;;27.45;7.47;;;22.60;64.70;;;;;;6294402;28;20028;-69
2023/08/01 12:57:39;;;;;;;22.27;6.95;;;22.50;64.00;;;;;;6291477;28;20116;-69
2023/08/01 13:00:41;;;;;;;17.17;6.25;;;22.50;63.90;;;;;;6293793;28;20032;-69
2023/08/01 13:03:44;;;;;;;26.60;6.43;;;22.50;63.90;;;;;;6294609;28;20028;-69
2023/08/01 13:06:45;;;;;;;27.75;6.75;;;22.50;63.80;;;;;;6279805;28;20024;-69
2023/08/01 13:09:46;;;;;;;17.90;5.70;;;22.50;64.60;;;;;;6292955;28;20429;-69
2023/08/01 13:12:47;;;;;;;19.90;5.57;;;22.50;63.70;;;;;;6292952;28;20024;-69
2023/08/01 13:15:48;;;;;;;13.77;4.88;;;22.50;63.70;;;;;;6293582;28;20033;-69
2023/08/01 13:18:49;;;;;;;15.82;4.47;;;22.50;63.70;;;;;;6292050;28;20021;-69
2023/08/01 13:21:49;;;;;;;13.95;4.72;;;22.50;63.60;;;;;;6292470;28;20033;-69
2023/08/01 13:24:50;;;;;;;14.32;4.45;;;22.50;63.70;;;;;;6291812;28;20412;-69
2023/08/01 13:27:51;;;;;;;11.07;4.20;;;22.60;63.70;;;;;;6291588;28;20485;-69
2023/08/01 13:30:51;;;;;;;8.40;3.83;;;22.60;63.50;;;;;;6293560;28;20044;-69
2023/08/01 13:33:52;;;;;;;11.93;4.40;;;22.60;63.30;;;;;;6292969;28;20048;-69
2023/08/01 13:36:53;;;;;;;13.32;4.47;;;22.60;63.40;;;;;;6292812;28;20055;-69
2023/08/01 13:39:54;;;;;;;8.07;3.47;;;22.60;63.40;;;;;;6292560;28;20070;-69
2023/08/01 13:42:55;;;;;;;10.60;3.67;;;22.60;63.30;;;;;;6293855;28;20468;-69
2023/08/01 13:45:56;;;;;;;8.98;4.00;;;22.60;63.40;;;;;;6293006;28;20027;-69
2023/08/01 13:48:57;;;;;;;11.07;4.07;;;22.60;63.20;;;;;;6292600;28;20020;-69
2023/08/01 13:51:57;;;;;;;10.75;3.65;;;22.60;63.50;;;;;;6292994;28;20025;-69
2023/08/01 13:54:58;;;;;;;10.38;3.25;;;22.60;63.60;;;;;;6292345;28;20481;-69
2023/08/01 13:57:59;;;;;;;9.32;3.53;;;22.60;63.50;;;;;;6292262;28;20478;-69
2023/08/01 14:01:07;;;;;;;9.10;3.90;;;22.60;63.50;;;;;;6291719;28;20033;-69
2023/08/01 14:04:07;;;;;;;14.70;3.50;;;22.60;63.30;;;;;;6285760;28;20020;-68
2023/08/01 14:07:08;;;;;;;19.35;4.32;;;22.60;63.20;;;;;;6291608;28;20050;-69
2023/08/01 14:10:09;;;;;;;16.30;3.72;;;22.60;63.10;;;;;;6293111;28;20070;-69
2023/08/01 14:13:10;;;;;;;9.68;3.70;;;22.60;63.00;;;;;;6293044;28;20100;-69
2023/08/01 14:16:11;;;;;;;17.45;4.10;;;22.70;62.90;;;;;;6292742;28;20065;-69
2023/08/01 14:19:11;;;;;;;9.63;3.22;;;22.70;62.70;;;;;;6291519;28;20401;-69
2023/08/01 14:22:12;;;;;;;11.38;3.78;;;22.70;62.70;;;;;;6292808;28;20031;-69
2023/08/01 14:25:13;;;;;;;14.18;3.40;;;22.60;62.70;;;;;;6291578;28;20078;-70
2023/08/01 14:28:14;;;;;;;18.85;3.88;;;22.70;62.60;;;;;;6291572;28;20016;-69
2023/08/01 14:31:15;;;;;;;17.13;4.45;;;22.70;62.60;;;;;;6295091;28;20062;-69
2023/08/01 14:34:16;;;;;;;18.88;4.55;;;22.70;62.30;;;;;;6297079;28;20389;-69
2023/08/01 14:37:16;;;;;;;17.92;4.13;;;22.60;62.20;;;;;;6297287;28;20051;-69
2023/08/01 14:40:17;;;;;;;17.77;3.05;;;22.70;62.20;;;;;;6296666;28;20499;-69
2023/08/01 14:43:18;;;;;;;7.68;3.17;;;22.70;61.80;;;;;;6279341;28;20024;-69
2023/08/01 14:46:19;;;;;;;11.40;3.50;;;22.70;61.80;;;;;;6295760;28;20036;-69
2023/08/01 14:49:21;;;;;;;10.57;2.95;;;22.70;61.80;;;;;;6296496;28;20055;-69
2023/08/01 14:52:22;;;;;;;9.60;2.97;;;22.70;61.80;;;;;;6296755;28;20570;-68
2023/08/01 14:55:22;;;;;;;8.27;3.67;;;22.70;61.60;;;;;;6296360;28;20025;-69
2023/08/01 14:58:23;;;;;;;9.20;3.47;;;22.70;61.50;;;;;;6296145;28;20580;-68
2023/08/01 15:01:24;;;;;;;30.27;5.63;;;22.70;61.60;;;;;;6292613;28;20248;-69
2023/08/01 15:04:26;;;;;;;33.97;7.00;;;22.70;61.20;;;;;;6284227;28;20594;-69
2023/08/01 15:07:27;;;;;;;22.83;5.50;;;22.70;61.00;;;;;;6281426;28;20544;-69
2023/08/01 15:10:28;;;;;;;15.52;4.82;;;22.70;61.00;;;;;;6295882;28;20099;-69
2023/08/01 15:13:28;;;;;;;13.60;4.03;;;22.70;61.60;;;;;;6296084;28;20017;-68
2023/08/01 15:16:29;;;;;;;7.63;4.00;;;22.70;60.70;;;;;;6296359;28;20025;-69
2023/08/01 15:19:31;;;;;;;8.07;3.63;;;22.60;61.60;;;;;;6294176;28;20024;-68
2023/08/01 15:22:32;;;;;;;9.50;3.45;;;22.70;61.80;;;;;;6296493;28;20059;-68
2023/08/01 15:25:33;;;;;;;7.55;3.85;;;22.60;62.00;;;;;;6295704;28;20024;-69
2023/08/01 15:28:36;;;;;;;9.30;3.38;;;22.60;62.10;;;;;;6295482;28;20345;-69
2023/08/01 15:31:36;;;;;;;9.23;3.13;;;22.60;62.20;;;;;;6296103;28;20008;-69
2023/08/01 15:34:37;;;;;;;7.60;3.30;;;22.60;62.20;;;;;;6295973;28;20087;-69
2023/08/01 15:37:38;;;;;;;8.70;3.30;;;22.60;62.40;;;;;;6294328;28;20051;-69
2023/08/01 15:40:39;;;;;;;9.85;3.47;;;22.60;62.50;;;;;;6295635;28;20040;-69
2023/08/01 15:43:40;;;;;;;6.65;2.53;;;22.60;62.50;;;;;;6295022;28;20028;-69